Time;durP1;ratioP1;P1;durP2;ratioP2;P2;SDS_P1;SDS_P2;PMS_P1;PMS_P2;Temp;Humidity;BMP_temperature;BMP_pressure;BME280_temperature;BME280_humidity;BME280_pressure;Samples;Min_cycle;Max_cycle;Signal;HPM_P1;HPM_P2
2022/11/16 00:01:23;;;;;;;;;3.50;3.00;;;;;;;;4979226;28;45366;-64
2022/11/16 00:03:50;;;;;;;;;3.50;3.00;;;;;;;;4979209;28;46446;-64
2022/11/16 00:06:15;;;;;;;;;4.75;3.00;;;;;;;;4978939;28;45443;-64
2022/11/16 00:08:42;;;;;;;;;3.00;3.00;;;;;;;;4975611;28;45559;-64
2022/11/16 00:11:09;;;;;;;;;1.75;1.75;;;;;;;;4974627;28;45562;-64
2022/11/16 00:13:35;;;;;;;;;3.00;3.00;;;;;;;;4978230;28;46252;-64
2022/11/16 00:16:00;;;;;;;;;2.00;2.00;;;;;;;;4978190;28;45367;-64
2022/11/16 00:18:26;;;;;;;;;4.00;2.00;;;;;;;;4978766;28;45446;-63
2022/11/16 00:20:51;;;;;;;;;2.00;2.00;;;;;;;;4978306;28;45298;-63
2022/11/16 00:23:16;;;;;;;;;3.25;2.00;;;;;;;;4978022;28;46609;-63
2022/11/16 00:25:42;;;;;;;;;3.50;3.50;;;;;;;;4977969;28;45335;-63
2022/11/16 00:28:07;;;;;;;;;4.00;3.25;;;;;;;;4976898;28;45940;-63
2022/11/16 00:30:32;;;;;;;;;3.00;3.00;;;;;;;;4978500;28;45374;-63
2022/11/16 00:33:01;;;;;;;;;1.50;1.50;;;;;;;;4960304;28;45937;-63
2022/11/16 00:35:26;;;;;;;;;2.00;2.00;;;;;;;;4977815;28;45425;-63
2022/11/16 00:37:51;;;;;;;;;3.50;2.50;;;;;;;;4978264;28;45427;-63
2022/11/16 00:40:17;;;;;;;;;3.75;3.00;;;;;;;;4976620;28;45449;-63
2022/11/16 00:42:42;;;;;;;;;2.75;2.00;;;;;;;;4977692;28;45696;-63
2022/11/16 00:45:08;;;;;;;;;2.75;2.75;;;;;;;;4977749;28;45501;-63
2022/11/16 00:47:33;;;;;;;;;1.50;1.50;;;;;;;;4977951;28;45386;-63
2022/11/16 00:49:58;;;;;;;;;4.00;2.75;;;;;;;;4978012;28;45353;-63
2022/11/16 00:52:23;;;;;;;;;4.00;3.00;;;;;;;;4977368;28;45533;-63
2022/11/16 00:54:48;;;;;;;;;3.00;3.00;;;;;;;;4977823;28;45426;-63
2022/11/16 00:57:14;;;;;;;;;3.00;2.00;;;;;;;;4975659;28;45590;-63
2022/11/16 00:59:39;;;;;;;;;4.50;3.25;;;;;;;;4977596;28;45432;-64
2022/11/16 01:02:04;;;;;;;;;2.00;2.00;;;;;;;;4977567;28;46217;-63
2022/11/16 01:04:29;;;;;;;;;3.00;2.50;;;;;;;;4977505;28;45315;-63
2022/11/16 01:06:54;;;;;;;;;4.00;3.50;;;;;;;;4977722;28;45442;-63
2022/11/16 01:09:20;;;;;;;;;5.00;4.00;;;;;;;;4977130;28;45503;-63
2022/11/16 01:14:29;;;;;;;;;3.25;2.00;;;;;;;;4977527;28;45451;-64
2022/11/16 01:16:54;;;;;;;;;2.00;2.00;;;;;;;;4977433;28;45432;-63
2022/11/16 01:19:19;;;;;;;;;1.75;1.00;;;;;;;;4977492;28;45405;-63
2022/11/16 01:21:44;;;;;;;;;1.25;1.25;;;;;;;;4977228;28;46319;-63
2022/11/16 01:24:10;;;;;;;;;2.50;2.50;;;;;;;;4977438;28;45395;-63
2022/11/16 01:26:35;;;;;;;;;2.00;2.00;;;;;;;;4973254;28;45484;-63
2022/11/16 01:29:00;;;;;;;;;4.25;1.00;;;;;;;;4977025;28;45493;-63
2022/11/16 01:31:25;;;;;;;;;6.00;5.25;;;;;;;;4976828;28;46261;-64
2022/11/16 01:33:51;;;;;;;;;2.00;2.00;;;;;;;;4976982;28;45487;-63
2022/11/16 01:36:16;;;;;;;;;1.75;1.75;;;;;;;;4977195;28;45561;-63
2022/11/16 01:38:42;;;;;;;;;3.00;1.75;;;;;;;;4977402;28;45410;-63
2022/11/16 01:41:07;;;;;;;;;4.50;1.00;;;;;;;;4976524;28;45426;-63
2022/11/16 01:43:50;;;;;;;;;3.00;3.00;;;;;;;;4975544;28;45240;-63
2022/11/16 01:46:15;;;;;;;;;2.25;2.25;;;;;;;;4976883;28;45474;-63
2022/11/16 01:48:40;;;;;;;;;3.00;3.00;;;;;;;;4977150;28;45421;-63
2022/11/16 01:51:06;;;;;;;;;2.75;2.00;;;;;;;;4976680;28;46633;-63
2022/11/16 01:53:31;;;;;;;;;1.25;0.00;;;;;;;;4976776;28;45473;-63
2022/11/16 01:55:57;;;;;;;;;1.00;1.00;;;;;;;;4976791;28;45350;-63
2022/11/16 01:58:23;;;;;;;;;3.75;1.75;;;;;;;;4975344;28;45348;-63
2022/11/16 02:00:49;;;;;;;;;3.00;1.00;;;;;;;;4972643;28;47200;-63
2022/11/16 02:03:18;;;;;;;;;1.00;1.00;;;;;;;;4976511;28;45429;-63
2022/11/16 02:05:43;;;;;;;;;2.75;1.50;;;;;;;;4976799;28;45411;-63
2022/11/16 02:11:39;;;;;;;;;2.25;1.50;;;;;;;;4934429;28;45502;-63
2022/11/16 02:14:10;;;;;;;;;3.75;2.25;;;;;;;;4934908;28;45309;-63
2022/11/16 02:16:50;;;;;;;;;3.75;3.75;;;;;;;;4925536;28;45412;-63
2022/11/16 02:19:31;;;;;;;;;2.00;1.50;;;;;;;;4917120;28;45525;-63
2022/11/16 02:22:05;;;;;;;;;1.75;1.75;;;;;;;;4925649;28;45726;-63
2022/11/16 02:24:46;;;;;;;;;2.00;2.00;;;;;;;;4934705;28;45590;-63
2022/11/16 02:27:16;;;;;;;;;16.67;16.00;;;;;;;;4934824;28;45485;-63
2022/11/16 02:29:44;;;;;;;;;6.75;2.25;;;;;;;;4934694;28;45313;-63
2022/11/16 02:32:28;;;;;;;;;1.00;1.00;;;;;;;;4924721;28;46444;-63
2022/11/16 02:34:56;;;;;;;;;1.75;1.75;;;;;;;;4920008;28;45521;-63
2022/11/16 02:37:23;;;;;;;;;3.50;3.00;;;;;;;;4917825;28;45488;-63
2022/11/16 02:39:51;;;;;;;;;4.00;2.00;;;;;;;;4934586;28;45521;-63
2022/11/16 02:42:19;;;;;;;;;4.00;2.00;;;;;;;;4956928;28;46657;-63
2022/11/16 02:44:46;;;;;;;;;4.25;2.75;;;;;;;;4976118;28;45362;-63
2022/11/16 02:47:15;;;;;;;;;0.75;0.75;;;;;;;;4975947;28;45350;-63
2022/11/16 02:49:44;;;;;;;;;29.67;26.67;;;;;;;;4974961;28;45468;-63
2022/11/16 02:52:10;;;;;;;;;3.75;3.75;;;;;;;;4975456;28;46385;-63
2022/11/16 02:54:35;;;;;;;;;5.25;4.25;;;;;;;;4975989;28;45289;-63
2022/11/16 02:57:00;;;;;;;;;6.00;5.00;;;;;;;;4975863;28;45429;-63
2022/11/16 02:59:28;;;;;;;;;5.00;4.25;;;;;;;;4976030;28;45803;-63
2022/11/16 03:02:05;;;;;;;;;9.25;6.00;;;;;;;;4975860;28;47490;-63
2022/11/16 03:04:40;;;;;;;;;5.00;4.25;;;;;;;;4974237;28;46347;-63
2022/11/16 03:07:07;;;;;;;;;4.00;4.00;;;;;;;;4975941;28;45359;-63
2022/11/16 03:09:35;;;;;;;;;9.75;6.75;;;;;;;;4975976;28;45485;-63
2022/11/16 03:12:04;;;;;;;;;8.00;5.00;;;;;;;;4975371;28;47117;-63
2022/11/16 03:14:45;;;;;;;;;7.00;5.00;;;;;;;;4975556;28;45429;-63
2022/11/16 03:17:14;;;;;;;;;7.50;3.25;;;;;;;;4975777;28;45480;-63
2022/11/16 03:19:42;;;;;;;;;4.75;4.50;;;;;;;;4975639;28;45535;-63
2022/11/16 03:22:11;;;;;;;;;4.00;4.00;;;;;;;;4973749;28;45550;-63
2022/11/16 03:24:36;;;;;;;;;4.00;4.00;;;;;;;;4975583;28;45740;-63
2022/11/16 03:27:20;;;;;;;;;4.75;2.25;;;;;;;;4975623;28;45410;-63
2022/11/16 03:29:54;;;;;;;;;3.00;3.00;;;;;;;;4976002;28;45410;-63
2022/11/16 03:32:22;;;;;;;;;4.00;2.50;;;;;;;;4974920;28;46361;-63
2022/11/16 03:34:53;;;;;;;;;3.00;2.00;;;;;;;;4978750;28;45410;-64
2022/11/16 03:37:19;;;;;;;;;2.00;2.00;;;;;;;;4978918;28;45474;-63
2022/11/16 03:39:45;;;;;;;;;3.00;2.00;;;;;;;;4979011;28;45584;-63
2022/11/16 03:42:13;;;;;;;;;6.75;4.00;;;;;;;;4978761;28;45506;-63
2022/11/16 03:44:39;;;;;;;;;14.67;13.67;;;;;;;;4978501;28;45508;-63
2022/11/16 03:47:04;;;;;;;;;5.50;4.75;;;;;;;;4977653;28;45618;-63
2022/11/16 03:49:30;;;;;;;;;5.50;3.00;;;;;;;;4978942;28;45360;-63
2022/11/16 03:51:56;;;;;;;;;2.00;2.00;;;;;;;;4978296;28;47423;-63
2022/11/16 03:54:21;;;;;;;;;7.50;3.00;;;;;;;;4978489;28;45322;-62
2022/11/16 03:56:47;;;;;;;;;3.00;2.00;;;;;;;;4978815;28;45389;-63
2022/11/16 03:59:12;;;;;;;;;4.75;2.25;;;;;;;;4978649;28;45430;-64
2022/11/16 04:01:37;;;;;;;;;3.75;2.00;;;;;;;;4978483;28;45509;-65
2022/11/16 04:04:02;;;;;;;;;4.75;3.00;;;;;;;;4978801;28;45404;-66
2022/11/16 04:25:44;;;;;;;;;3.00;1.80;;;;;;;;4979673;28;45510;-65
2022/11/16 04:28:13;;;;;;;;;3.50;1.50;;;;;;;;4979482;28;45405;-65
2022/11/16 04:39:18;;;;;;;;;9.00;4.00;;;;;;;;4960025;28;45275;-65
2022/11/16 04:47:05;;;;;;;;;4.00;1.75;;;;;;;;4958769;28;45371;-66
2022/11/16 04:47:12;;;;;;;;;3.75;2.00;;;;;;;;4959717;28;45441;-66
2022/11/16 04:49:37;;;;;;;;;2.50;1.50;;;;;;;;4959934;28;45340;-66
2022/11/16 04:52:02;;;;;;;;;10.75;8.75;;;;;;;;4977865;28;45480;-66
2022/11/16 04:54:28;;;;;;;;;11.75;9.25;;;;;;;;4978927;28;46746;-65
2022/11/16 04:56:53;;;;;;;;;11.00;6.25;;;;;;;;4979011;28;45342;-65
2022/11/16 04:59:18;;;;;;;;;3.75;3.00;;;;;;;;4979179;28;45397;-65
2022/11/16 05:04:27;;;;;;;;;1.50;1.00;;;;;;;;4978915;28;45370;-66
2022/11/16 05:06:52;;;;;;;;;4.00;2.75;;;;;;;;4979098;28;45343;-65
2022/11/16 05:09:18;;;;;;;;;3.00;2.00;;;;;;;;4978054;28;45424;-66
2022/11/16 05:11:43;;;;;;;;;5.50;1.75;;;;;;;;4978933;28;45442;-66
2022/11/16 05:14:09;;;;;;;;;3.50;2.00;;;;;;;;4978678;28;45406;-66
2022/11/16 05:16:34;;;;;;;;;5.50;2.00;;;;;;;;4978803;28;45458;-66
2022/11/16 05:21:43;;;;;;;;;9.75;2.75;;;;;;;;4979196;28;45427;-67
2022/11/16 05:26:52;;;;;;;;;2.50;2.25;;;;;;;;4989582;28;45482;-66
2022/11/16 05:29:17;;;;;;;;;5.75;5.75;;;;;;;;4998409;28;45411;-66
2022/11/16 05:31:43;;;;;;;;;3.75;3.50;;;;;;;;4998403;28;45560;-66
2022/11/16 05:34:08;;;;;;;;;4.50;1.75;;;;;;;;4997945;28;46358;-66
2022/11/16 05:36:33;;;;;;;;;4.50;2.75;;;;;;;;4998203;28;45406;-66
2022/11/16 05:38:59;;;;;;;;;4.00;2.75;;;;;;;;4987815;28;45443;-65
2022/11/16 05:41:24;;;;;;;;;1.25;1.00;;;;;;;;4978763;28;45313;-66
2022/11/16 05:43:49;;;;;;;;;3.00;1.00;;;;;;;;4978238;28;45479;-65
2022/11/16 05:46:14;;;;;;;;;24.67;18.67;;;;;;;;4978281;28;45798;-65
2022/11/16 05:48:39;;;;;;;;;1.25;1.25;;;;;;;;4978617;28;45564;-66
2022/11/16 05:51:05;;;;;;;;;4.00;1.00;;;;;;;;4978548;28;45417;-65
2022/11/16 05:53:30;;;;;;;;;1.00;1.00;;;;;;;;4978063;28;45565;-65
2022/11/16 05:55:55;;;;;;;;;3.00;2.00;;;;;;;;4977038;28;45472;-65
2022/11/16 05:58:20;;;;;;;;;2.00;1.50;;;;;;;;4978263;28;45445;-65
2022/11/16 06:00:46;;;;;;;;;3.00;1.00;;;;;;;;4978224;28;45411;-65
2022/11/16 06:03:11;;;;;;;;;1.00;1.00;;;;;;;;4978117;28;46575;-66
2022/11/16 06:05:36;;;;;;;;;2.00;1.25;;;;;;;;4978098;28;45335;-65
2022/11/16 06:08:02;;;;;;;;;2.00;1.00;;;;;;;;4978250;28;45424;-65
2022/11/16 06:10:27;;;;;;;;;2.00;1.75;;;;;;;;4977053;28;45296;-65
2022/11/16 06:12:52;;;;;;;;;1.25;1.25;;;;;;;;4977853;28;46361;-63
2022/11/16 06:15:18;;;;;;;;;3.00;1.00;;;;;;;;4977751;28;45383;-64
2022/11/16 06:17:43;;;;;;;;;3.00;2.00;;;;;;;;4977708;28;45494;-64
2022/11/16 06:20:09;;;;;;;;;2.00;2.00;;;;;;;;4978080;28;45508;-64
2022/11/16 06:22:34;;;;;;;;;3.75;3.75;;;;;;;;4977769;28;46152;-65
2022/11/16 06:24:59;;;;;;;;;4.00;2.00;;;;;;;;4977774;28;45211;-64
2022/11/16 06:27:24;;;;;;;;;5.00;2.00;;;;;;;;4976742;28;45527;-64
2022/11/16 06:29:49;;;;;;;;;2.75;2.75;;;;;;;;4977987;28;45298;-64
2022/11/16 06:32:14;;;;;;;;;1.00;1.00;;;;;;;;4977421;28;46278;-64
2022/11/16 06:34:40;;;;;;;;;2.00;2.00;;;;;;;;4977742;28;45371;-65
2022/11/16 06:37:05;;;;;;;;;6.25;3.25;;;;;;;;4977865;28;45428;-66
2022/11/16 06:39:30;;;;;;;;;4.25;1.25;;;;;;;;4978001;28;45450;-67
2022/11/16 06:41:55;;;;;;;;;7.25;5.50;;;;;;;;4977630;28;46614;-67
2022/11/16 06:44:20;;;;;;;;;4.00;4.00;;;;;;;;4976693;28;45379;-66
2022/11/16 06:46:46;;;;;;;;;4.75;4.75;;;;;;;;4977688;28;45318;-66
2022/11/16 06:49:11;;;;;;;;;2.25;2.00;;;;;;;;4977681;28;45375;-66
2022/11/16 06:51:36;;;;;;;;;3.00;3.00;;;;;;;;4977188;28;46104;-67
2022/11/16 06:54:01;;;;;;;;;3.25;3.25;;;;;;;;4977276;28;45441;-66
2022/11/16 06:56:27;;;;;;;;;5.25;5.00;;;;;;;;4977488;28;45354;-66
2022/11/16 06:58:54;;;;;;;;;4.00;2.00;;;;;;;;4977736;28;45432;-64
2022/11/16 07:01:19;;;;;;;;;7.25;3.00;;;;;;;;4975876;28;46719;-65
2022/11/16 07:03:44;;;;;;;;;2.75;1.00;;;;;;;;4977397;28;45550;-65
2022/11/16 07:06:10;;;;;;;;;3.00;1.00;;;;;;;;4977057;28;45538;-65
2022/11/16 07:08:36;;;;;;;;;2.25;1.25;;;;;;;;4979438;28;45390;-65
2022/11/16 07:11:02;;;;;;;;;7.00;2.00;;;;;;;;4980757;28;47136;-66
2022/11/16 07:13:29;;;;;;;;;3.75;3.75;;;;;;;;4980364;28;45320;-65
2022/11/16 07:15:59;;;;;;;;;2.50;2.00;;;;;;;;4980589;28;45450;-65
2022/11/16 07:18:24;;;;;;;;;1.75;1.75;;;;;;;;4979941;28;45228;-64
2022/11/16 07:20:49;;;;;;;;;3.75;2.00;;;;;;;;4980293;28;46361;-66
2022/11/16 07:23:14;;;;;;;;;3.00;2.00;;;;;;;;4962981;28;45423;-66
2022/11/16 07:25:39;;;;;;;;;1.75;1.75;;;;;;;;4980738;28;45458;-67
2022/11/16 07:28:05;;;;;;;;;3.75;2.25;;;;;;;;4980876;28;45389;-67
2022/11/16 07:30:31;;;;;;;;;6.75;2.00;;;;;;;;4980037;28;46146;-67
2022/11/16 07:32:57;;;;;;;;;3.50;2.00;;;;;;;;4979210;28;45875;-67
2022/11/16 07:35:22;;;;;;;;;2.00;2.00;;;;;;;;4980616;28;45453;-66
2022/11/16 07:37:47;;;;;;;;;3.00;2.75;;;;;;;;4980514;28;45454;-66
2022/11/16 07:40:12;;;;;;;;;6.25;3.00;;;;;;;;4980249;28;45490;-66
2022/11/16 07:42:38;;;;;;;;;4.00;2.25;;;;;;;;4978969;28;45612;-67
2022/11/16 07:45:03;;;;;;;;;3.00;1.50;;;;;;;;4980373;28;45331;-67
2022/11/16 07:47:33;;;;;;;;;11.00;11.00;;;;;;;;4980288;28;45406;-67
2022/11/16 07:49:58;;;;;;;;;3.75;1.75;;;;;;;;4979968;28;46274;-64
2022/11/16 07:52:24;;;;;;;;;2.75;1.00;;;;;;;;4979752;28;45379;-66
2022/11/16 07:54:49;;;;;;;;;5.50;1.25;;;;;;;;4980362;28;45339;-66
2022/11/16 07:57:14;;;;;;;;;2.50;2.00;;;;;;;;4980094;28;45426;-65
2022/11/16 07:59:40;;;;;;;;;7.75;3.50;;;;;;;;4978991;28;47540;-64
2022/11/16 08:02:06;;;;;;;;;3.75;3.00;;;;;;;;4998676;28;45306;-64
2022/11/16 08:04:31;;;;;;;;;3.75;2.75;;;;;;;;4999198;28;45409;-65
2022/11/16 08:06:56;;;;;;;;;3.50;3.50;;;;;;;;4999616;28;45410;-66
2022/11/16 08:09:21;;;;;;;;;6.50;3.00;;;;;;;;4999108;28;47431;-66
2022/11/16 08:11:47;;;;;;;;;5.00;4.75;;;;;;;;4981554;28;45405;-66
2022/11/16 08:14:12;;;;;;;;;3.25;2.50;;;;;;;;4979339;28;45740;-66
2022/11/16 08:16:37;;;;;;;;;1.50;1.00;;;;;;;;4979370;28;45605;-66
2022/11/16 08:19:03;;;;;;;;;4.00;2.75;;;;;;;;4978464;28;46389;-66
2022/11/16 08:21:28;;;;;;;;;6.50;4.00;;;;;;;;4979160;28;45907;-66
2022/11/16 08:23:53;;;;;;;;;2.50;2.50;;;;;;;;4979558;28;45378;-66
2022/11/16 08:26:20;;;;;;;;;4.00;2.00;;;;;;;;4979393;28;45365;-66
2022/11/16 08:28:46;;;;;;;;;4.75;2.00;;;;;;;;4977975;28;46427;-66
2022/11/16 08:31:13;;;;;;;;;3.75;2.25;;;;;;;;4979035;28;45414;-65
2022/11/16 08:33:38;;;;;;;;;3.50;2.00;;;;;;;;4979326;28;45379;-67
2022/11/16 08:36:04;;;;;;;;;3.00;3.00;;;;;;;;4979631;28;45245;-66
2022/11/16 08:38:30;;;;;;;;;6.50;6.00;;;;;;;;4978749;28;47027;-65
2022/11/16 08:40:55;;;;;;;;;3.00;2.75;;;;;;;;4978831;28;45323;-64
2022/11/16 08:43:20;;;;;;;;;4.00;2.00;;;;;;;;4979204;28;45362;-67
2022/11/16 08:45:48;;;;;;;;;4.75;4.00;;;;;;;;4978088;28;45310;-66
2022/11/16 08:48:13;;;;;;;;;2.00;2.00;;;;;;;;4978816;28;46587;-66
2022/11/16 08:50:39;;;;;;;;;3.25;3.00;;;;;;;;4978804;28;45257;-66
2022/11/16 08:53:04;;;;;;;;;11.00;7.25;;;;;;;;4975832;28;45823;-66
2022/11/16 08:55:29;;;;;;;;;5.75;2.75;;;;;;;;4979121;28;45332;-66
2022/11/16 08:57:54;;;;;;;;;3.00;3.00;;;;;;;;4974539;28;45820;-67
2022/11/16 09:00:19;;;;;;;;;6.00;4.00;;;;;;;;4976117;28;45695;-66
2022/11/16 09:02:45;;;;;;;;;3.75;3.00;;;;;;;;4977164;28;45442;-66
2022/11/16 09:05:10;;;;;;;;;2.00;2.00;;;;;;;;4976751;28;45313;-65
2022/11/16 09:07:39;;;;;;;;;5.25;4.00;;;;;;;;4974982;28;45434;-66
2022/11/16 09:10:05;;;;;;;;;7.00;3.00;;;;;;;;4976988;28;45497;-66
2022/11/16 09:12:31;;;;;;;;;5.00;2.75;;;;;;;;4977997;28;45891;-66
2022/11/16 09:14:56;;;;;;;;;4.50;2.25;;;;;;;;4978751;28;45371;-65
2022/11/16 09:17:21;;;;;;;;;3.75;1.00;;;;;;;;4978111;28;46465;-66
2022/11/16 09:19:47;;;;;;;;;4.50;4.00;;;;;;;;4978718;28;45441;-66
2022/11/16 09:22:12;;;;;;;;;2.75;2.75;;;;;;;;4976764;28;45526;-66
2022/11/16 09:24:37;;;;;;;;;2.00;2.00;;;;;;;;4978288;28;45441;-66
2022/11/16 09:27:02;;;;;;;;;7.50;4.25;;;;;;;;4978252;28;45536;-66
2022/11/16 09:29:28;;;;;;;;;4.25;3.00;;;;;;;;4977457;28;45579;-66
2022/11/16 09:31:54;;;;;;;;;5.00;4.00;;;;;;;;4977921;28;45811;-67
2022/11/16 09:34:19;;;;;;;;;4.75;2.25;;;;;;;;4978211;28;45338;-66
2022/11/16 09:36:44;;;;;;;;;4.75;3.00;;;;;;;;4976371;28;45465;-67
2022/11/16 09:39:12;;;;;;;;;5.50;5.50;;;;;;;;4978008;28;45264;-70
2022/11/16 09:41:53;;;;;;;;;4.00;4.00;;;;;;;;4978083;28;45397;-75
2022/11/16 09:44:21;;;;;;;;;6.00;4.00;;;;;;;;4958863;28;45715;-70
2022/11/16 09:46:56;;;;;;;;;3.75;3.75;;;;;;;;4958131;28;46702;-65
2022/11/16 09:49:24;;;;;;;;;3.75;3.25;;;;;;;;4958328;28;45505;-66
2022/11/16 09:51:54;;;;;;;;;7.50;5.00;;;;;;;;4958658;28;45604;-65
2022/11/16 09:54:21;;;;;;;;;2.00;1.00;;;;;;;;4963463;28;45398;-65
2022/11/16 09:56:49;;;;;;;;;3.25;3.00;;;;;;;;4967440;28;46736;-66
2022/11/16 09:59:14;;;;;;;;;3.75;3.75;;;;;;;;4977084;28;45442;-65
2022/11/16 10:01:58;;;;;;;;;9.25;3.50;;;;;;;;4977214;28;45382;-65
2022/11/16 10:04:26;;;;;;;;;5.00;5.00;;;;;;;;4977229;28;45484;-66
2022/11/16 10:06:54;;;;;;;;;5.75;4.00;;;;;;;;4977038;28;46373;-66
2022/11/16 10:09:21;;;;;;;;;5.00;5.00;;;;;;;;4977112;28;45421;-67
2022/11/16 10:11:46;;;;;;;;;5.00;3.25;;;;;;;;4977294;28;45393;-67
2022/11/16 10:14:26;;;;;;;;;5.00;3.00;;;;;;;;4974531;28;45417;-68
2022/11/16 10:16:54;;;;;;;;;5.75;4.25;;;;;;;;4975633;28;47344;-66
2022/11/16 10:19:23;;;;;;;;;5.00;4.00;;;;;;;;4976615;28;45403;-65
2022/11/16 10:22:07;;;;;;;;;4.25;4.25;;;;;;;;4977308;28;45327;-67
2022/11/16 10:24:52;;;;;;;;;5.50;3.75;;;;;;;;4977346;28;45442;-67
2022/11/16 10:27:20;;;;;;;;;8.75;5.00;;;;;;;;4975931;28;46374;-66
2022/11/16 10:29:45;;;;;;;;;7.50;5.50;;;;;;;;4976051;28;45852;-66
2022/11/16 10:32:10;;;;;;;;;12.50;7.75;;;;;;;;4976587;28;45362;-65
2022/11/16 10:35:05;;;;;;;;;7.75;4.50;;;;;;;;4975855;28;45491;-66
2022/11/16 10:37:32;;;;;;;;;5.75;2.50;;;;;;;;4955104;28;45477;-66
2022/11/16 10:39:57;;;;;;;;;6.50;3.50;;;;;;;;4976262;28;45797;-67
2022/11/16 10:42:35;;;;;;;;;3.75;3.25;;;;;;;;4976039;28;45482;-66
2022/11/16 10:45:09;;;;;;;;;7.25;5.25;;;;;;;;4976457;28;45552;-66
2022/11/16 10:47:35;;;;;;;;;3.00;3.00;;;;;;;;4975550;28;45413;-67
2022/11/16 10:50:16;;;;;;;;;5.25;4.00;;;;;;;;4974594;28;46487;-66
2022/11/16 10:52:41;;;;;;;;;3.75;3.00;;;;;;;;4976418;28;45267;-64
2022/11/16 10:55:07;;;;;;;;;4.25;3.00;;;;;;;;4976395;28;45818;-65
2022/11/16 10:57:53;;;;;;;;;2.00;2.00;;;;;;;;4975293;28;47300;-65
2022/11/16 11:00:54;;;;;;;;;7.00;5.75;;;;;;;;4973900;28;45447;-66
2022/11/16 11:03:32;;;;;;;;;4.50;4.00;;;;;;;;4893098;29;45712;-64
2022/11/16 11:05:57;;;;;;;;;3.75;2.00;;;;;;;;4884673;29;45550;-65
2022/11/16 11:08:24;;;;;;;;;4.25;3.00;;;;;;;;4891788;29;46496;-65
2022/11/16 11:10:56;;;;;;;;;5.75;3.25;;;;;;;;4897067;29;45529;-63
2022/11/16 11:13:25;;;;;;;;;6.50;3.75;;;;;;;;4896735;29;45535;-68
2022/11/16 11:15:50;;;;;;;;;3.00;3.00;;;;;;;;4898258;28;45486;-65
2022/11/16 11:18:26;;;;;;;;;4.75;3.25;;;;;;;;4904632;28;46765;-67
2022/11/16 11:21:05;;;;;;;;;4.50;4.50;;;;;;;;4894371;28;45528;-66
2022/11/16 11:23:36;;;;;;;;;2.00;2.00;;;;;;;;4907364;28;45524;-64
2022/11/16 11:26:02;;;;;;;;;7.75;5.75;;;;;;;;4894355;28;45395;-65
2022/11/16 11:28:30;;;;;;;;;4.00;2.50;;;;;;;;4883442;28;45530;-65
2022/11/16 11:31:21;;;;;;;;;4.00;3.50;;;;;;;;4894252;28;45662;-64
2022/11/16 11:33:51;;;;;;;;;3.75;3.00;;;;;;;;4897344;28;45689;-64
2022/11/16 11:36:21;;;;;;;;;8.50;7.50;;;;;;;;4890494;28;45454;-64
2022/11/16 11:38:58;;;;;;;;;3.75;3.75;;;;;;;;4956720;28;46664;-64
2022/11/16 11:41:24;;;;;;;;;2.00;2.00;;;;;;;;4979527;28;45521;-63
2022/11/16 11:43:59;;;;;;;;;5.00;4.75;;;;;;;;4975009;28;45455;-63
2022/11/16 11:46:27;;;;;;;;;5.50;3.00;;;;;;;;4974658;28;45607;-65
2022/11/16 11:49:00;;;;;;;;;5.00;3.75;;;;;;;;4972606;28;46548;-64
2022/11/16 11:51:32;;;;;;;;;1.25;1.00;;;;;;;;4956159;28;45517;-65
2022/11/16 11:53:58;;;;;;;;;3.00;3.00;;;;;;;;4976569;28;45493;-64
2022/11/16 11:56:24;;;;;;;;;5.50;5.50;;;;;;;;4979010;28;45486;-66
2022/11/16 11:58:50;;;;;;;;;3.00;3.00;;;;;;;;4978818;28;45824;-64
2022/11/16 12:01:21;;;;;;;;;4.25;2.50;;;;;;;;4979442;28;45501;-64
2022/11/16 12:03:58;;;;;;;;;3.00;2.00;;;;;;;;4979740;28;45480;-64
2022/11/16 12:06:29;;;;;;;;;2.25;2.00;;;;;;;;4979581;28;45489;-65
2022/11/16 12:08:57;;;;;;;;;4.75;2.75;;;;;;;;4979402;28;46186;-65
2022/11/16 12:11:44;;;;;;;;;5.50;4.25;;;;;;;;4979347;28;45359;-65
2022/11/16 12:14:27;;;;;;;;;7.25;3.00;;;;;;;;4979612;28;45328;-65
2022/11/16 12:17:04;;;;;;;;;3.50;3.00;;;;;;;;4979564;28;45553;-65
2022/11/16 12:20:02;;;;;;;;;1.50;1.50;;;;;;;;4978447;28;46720;-65
2022/11/16 12:22:27;;;;;;;;;2.00;2.00;;;;;;;;4918050;28;45503;-62
2022/11/16 12:24:53;;;;;;;;;2.50;2.50;;;;;;;;4918945;28;45293;-63
2022/11/16 12:27:18;;;;;;;;;4.25;2.25;;;;;;;;4914521;28;45542;-66
2022/11/16 12:29:43;;;;;;;;;12.00;12.00;;;;;;;;4917147;28;46390;-66
2022/11/16 12:32:20;;;;;;;;;3.00;2.50;;;;;;;;4918197;28;45866;-64
2022/11/16 12:34:59;;;;;;;;;4.25;2.75;;;;;;;;4918313;28;45587;-64
2022/11/16 12:37:24;;;;;;;;;2.75;2.00;;;;;;;;4918473;28;45622;-65
2022/11/16 12:40:04;;;;;;;;;6.75;2.25;;;;;;;;4918431;28;46877;-65
2022/11/16 12:42:32;;;;;;;;;5.25;1.00;;;;;;;;4914520;28;45584;-65
2022/11/16 12:45:00;;;;;;;;;10.25;8.00;;;;;;;;4918119;28;45548;-66
2022/11/16 12:47:39;;;;;;;;;2.25;1.00;;;;;;;;4913309;28;45617;-64
2022/11/16 12:50:14;;;;;;;;;1.50;1.50;;;;;;;;4918375;28;45905;-64
2022/11/16 12:52:51;;;;;;;;;2.60;2.00;;;;;;;;4918671;28;45445;-64
2022/11/16 12:55:24;;;;;;;;;2.75;1.00;;;;;;;;4918844;28;45495;-65
2022/11/16 12:58:08;;;;;;;;;5.50;5.50;;;;;;;;4935140;28;45421;-64
2022/11/16 13:00:58;;;;;;;;;2.75;2.00;;;;;;;;4959128;28;46523;-65
2022/11/16 13:03:49;;;;;;;;;3.60;1.00;;;;;;;;4929077;28;45316;-64
2022/11/16 13:06:19;;;;;;;;;1.00;1.00;;;;;;;;4953029;28;45984;-64
2022/11/16 13:08:53;;;;;;;;;2.00;1.00;;;;;;;;4957582;28;45308;-64
2022/11/16 13:11:24;;;;;;;;;3.50;1.75;;;;;;;;4957054;28;45546;-64
2022/11/16 13:13:54;;;;;;;;;2.20;2.20;;;;;;;;4956850;28;45447;-64
2022/11/16 13:16:20;;;;;;;;;5.00;3.25;;;;;;;;4957051;28;45469;-64
2022/11/16 13:18:46;;;;;;;;;5.50;1.50;;;;;;;;4956684;28;45446;-65
2022/11/16 13:21:11;;;;;;;;;5.75;5.00;;;;;;;;4955691;28;46535;-63
2022/11/16 13:23:43;;;;;;;;;4.00;3.00;;;;;;;;4956444;28;45365;-63
2022/11/16 13:26:21;;;;;;;;;3.75;3.50;;;;;;;;4954381;28;45546;-62
2022/11/16 13:29:05;;;;;;;;;3.50;2.00;;;;;;;;4956993;28;45436;-64
2022/11/16 13:31:52;;;;;;;;;2.00;2.00;;;;;;;;4956337;28;46041;-64
2022/11/16 13:34:22;;;;;;;;;2.00;1.00;;;;;;;;4956341;28;45463;-63
2022/11/16 13:36:47;;;;;;;;;2.50;1.75;;;;;;;;4956800;28;45570;-64
2022/11/16 13:39:17;;;;;;;;;2.25;2.25;;;;;;;;4957238;28;45491;-65
2022/11/16 13:41:42;;;;;;;;;5.00;3.00;;;;;;;;4978009;28;46550;-63
2022/11/16 13:44:17;;;;;;;;;4.00;2.25;;;;;;;;4978064;28;45287;-64
2022/11/16 13:46:44;;;;;;;;;3.00;2.00;;;;;;;;4978089;28;45415;-66
2022/11/16 13:49:19;;;;;;;;;1.00;1.00;;;;;;;;4978244;28;45703;-65
2022/11/16 13:51:50;;;;;;;;;3.00;1.25;;;;;;;;4977735;28;46678;-66
2022/11/16 13:54:15;;;;;;;;;2.20;2.20;;;;;;;;4977945;28;45405;-66
2022/11/16 13:56:47;;;;;;;;;7.00;2.75;;;;;;;;4978400;28;45237;-64
2022/11/16 13:59:15;;;;;;;;;4.00;2.00;;;;;;;;4977115;28;45455;-64
2022/11/16 14:02:18;;;;;;;;;1.75;1.75;;;;;;;;4973965;28;46292;-66
2022/11/16 14:04:57;;;;;;;;;2.80;2.60;;;;;;;;4976027;28;45467;-65
2022/11/16 14:07:31;;;;;;;;;5.25;5.25;;;;;;;;4975428;28;45502;-67
2022/11/16 14:09:59;;;;;;;;;2.25;1.75;;;;;;;;4977800;28;45505;-67
2022/11/16 14:12:37;;;;;;;;;3.75;3.00;;;;;;;;4977029;28;46487;-67
2022/11/16 14:15:11;;;;;;;;;2.75;2.00;;;;;;;;4975472;28;45319;-66
2022/11/16 14:17:57;;;;;;;;;9.00;7.75;;;;;;;;4977380;28;45414;-66
2022/11/16 14:20:42;;;;;;;;;3.00;3.00;;;;;;;;4912945;28;45458;-66
2022/11/16 14:23:07;;;;;;;;;7.00;4.75;;;;;;;;4913711;28;46660;-65
2022/11/16 14:25:48;;;;;;;;;2.25;2.25;;;;;;;;4916833;28;45452;-64
2022/11/16 14:28:19;;;;;;;;;14.00;9.00;;;;;;;;4913959;28;45340;-65
2022/11/16 14:30:53;;;;;;;;;5.25;4.00;;;;;;;;4917215;28;45380;-66
2022/11/16 14:33:28;;;;;;;;;27.00;22.00;;;;;;;;4916668;28;45471;-65
2022/11/16 14:35:53;;;;;;;;;6.50;4.00;;;;;;;;4913394;28;45512;-65
2022/11/16 14:38:27;;;;;;;;;2.75;2.00;;;;;;;;4917166;28;45527;-64
2022/11/16 14:40:54;;;;;;;;;6.75;5.00;;;;;;;;4913612;28;45274;-64
2022/11/16 14:43:22;;;;;;;;;6.00;4.75;;;;;;;;4916752;28;46259;-64
2022/11/16 14:45:51;;;;;;;;;5.50;2.00;;;;;;;;4916755;28;45477;-64
2022/11/16 14:48:18;;;;;;;;;6.25;6.25;;;;;;;;4913045;28;45396;-64
2022/11/16 14:50:46;;;;;;;;;7.50;5.75;;;;;;;;4916925;28;45858;-64
2022/11/16 14:53:15;;;;;;;;;6.50;5.00;;;;;;;;4916126;28;45700;-65
2022/11/16 14:55:42;;;;;;;;;2.00;2.00;;;;;;;;4916623;28;45499;-65
2022/11/16 14:58:07;;;;;;;;;8.75;4.00;;;;;;;;4962988;28;45450;-64
2022/11/16 15:00:33;;;;;;;;;3.00;1.00;;;;;;;;4976843;28;45404;-65
2022/11/16 15:02:59;;;;;;;;;4.50;2.00;;;;;;;;4976301;28;45469;-66
2022/11/16 15:05:28;;;;;;;;;6.50;3.75;;;;;;;;4976952;28;45393;-64
2022/11/16 15:07:56;;;;;;;;;2.50;2.00;;;;;;;;4977131;28;45404;-64
2022/11/16 15:10:27;;;;;;;;;7.25;4.00;;;;;;;;4976952;28;45461;-65
2022/11/16 15:12:53;;;;;;;;;5.00;3.00;;;;;;;;4976738;28;45521;-64
2022/11/16 15:15:19;;;;;;;;;1.20;1.20;;;;;;;;4976969;28;45379;-64
2022/11/16 15:17:50;;;;;;;;;5.00;3.00;;;;;;;;4984642;28;45482;-66
2022/11/16 15:20:18;;;;;;;;;1.00;1.00;;;;;;;;4997129;28;45812;-66
2022/11/16 15:22:45;;;;;;;;;2.50;1.00;;;;;;;;4996417;28;46388;-66
2022/11/16 15:25:23;;;;;;;;;4.00;2.75;;;;;;;;4996667;28;45315;-66
2022/11/16 15:27:49;;;;;;;;;5.00;4.00;;;;;;;;4996860;28;45482;-65
2022/11/16 15:30:18;;;;;;;;;2.00;2.00;;;;;;;;4999971;28;45295;-65
2022/11/16 15:32:45;;;;;;;;;3.25;3.25;;;;;;;;4999758;28;45439;-63
2022/11/16 15:35:19;;;;;;;;;2.75;2.75;;;;;;;;4995840;28;45433;-63
2022/11/16 15:37:44;;;;;;;;;1.00;1.00;;;;;;;;4995141;28;45443;-63